Time;durP1;ratioP1;P1;durP2;ratioP2;P2;SDS_P1;SDS_P2;PMS_P1;PMS_P2;Temp;Humidity;BMP_temperature;BMP_pressure;BME280_temperature;BME280_humidity;BME280_pressure;Samples;Min_cycle;Max_cycle;Signal;HPM_P1;HPM_P2
2022/01/01 00:02:48;;;;;;;14.73;10.03;;;;;;;16.31;64.92;99534.56;1981817;98;25801;-88
2022/01/01 00:06:40;;;;;;;16.70;8.08;;;;;;;16.23;65.04;99534.64;2066018;94;25978;-86
2022/01/01 00:13:40;;;;;;;8.90;7.85;;;;;;;16.14;64.93;99530.84;2106225;92;25982;-86
2022/01/01 00:17:27;;;;;;;14.65;7.97;;;;;;;16.12;64.94;99549.69;2108690;88;25781;-86
2022/01/01 00:21:09;;;;;;;23.80;7.10;;;;;;;16.09;64.97;99546.65;2113528;92;25905;-86
2022/01/01 00:24:57;;;;;;;;;;;;;;;;;;;;;
2022/01/01 00:28:34;;;;;;;27.40;7.37;;;;;;;16.06;65.25;99551.94;2031983;96;26443;-86
2022/01/01 00:32:30;;;;;;;22.80;6.60;;;;;;;16.05;65.42;99564.22;2018103;97;25628;-85
2022/01/01 00:36:32;;;;;;;23.67;5.95;;;;;;;16.06;65.63;99566.41;1950931;101;25872;-87
2022/01/01 00:40:18;;;;;;;15.72;4.50;;;;;;;16.05;65.70;99570.80;1952856;101;25832;-84
2022/01/01 00:43:47;;;;;;;12.63;4.58;;;;;;;16.07;65.99;99576.50;1898521;104;25903;-87
2022/01/01 00:47:26;;;;;;;8.85;4.35;;;;;;;16.09;66.07;99579.52;1898519;99;26047;-84
2022/01/01 00:51:00;;;;;;;13.88;4.50;;;;;;;16.10;66.08;99583.91;1905424;103;25827;-82
2022/01/01 00:54:43;;;;;;;5.70;2.83;;;;;;;16.11;66.07;99592.66;1905815;102;25891;-83
2022/01/01 01:02:30;;;;;;;;;;;;;;;;;;;;;
2022/01/01 01:06:10;;;;;;;;;;;;;;;;;;;;;
2022/01/01 01:10:12;;;;;;;;;;;;;;;;;;;;;
2022/01/01 01:18:00;;;;;;;4.62;2.65;;;;;;;15.85;64.80;99632.36;1879854;103;25817;-87
2022/01/01 01:21:35;;;;;;;2.40;1.50;;;;;;;15.74;64.70;99642.98;1881494;105;25672;-87
2022/01/01 01:25:22;;;;;;;2.98;2.00;;;;;;;15.65;64.63;99649.14;1882407;104;25851;-89
2022/01/01 01:29:14;;;;;;;1.65;1.42;;;;;;;15.59;64.55;99647.88;1864028;104;25853;-88
2022/01/01 01:33:10;;;;;;;3.37;1.30;;;;;;;15.51;64.49;99647.95;1914888;99;25844;-91
2022/01/01 01:36:24;;;;;;;1.22;1.12;;;;;;;15.44;64.43;99650.20;1933655;100;25722;-89
2022/01/01 01:40:57;;;;;;;1.65;1.55;;;;;;;15.38;64.34;99653.31;1938701;100;25784;-88
2022/01/01 01:44:47;;;;;;;2.15;1.60;;;;;;;15.34;64.34;99664.29;1971314;98;25967;-84
2022/01/01 01:48:34;;;;;;;2.00;1.47;;;;;;;15.25;64.31;99660.41;1972814;98;25800;-83
2022/01/01 01:52:00;;;;;;;1.52;1.20;;;;;;;15.08;64.20;99664.45;1975999;97;25391;-82
2022/01/01 01:59:36;;;;;;;;;;;;;;;;;;;;;
2022/01/01 02:03:16;;;;;;;1.67;1.20;;;;;;;14.94;64.07;99665.85;2149612;90;25902;-89
2022/01/01 02:07:01;;;;;;;2.45;1.50;;;;;;;14.86;64.04;99668.53;2172258;90;26501;-83
2022/01/01 02:14:20;;;;;;;1.85;1.60;;;;;;;14.73;64.13;99665.53;2054344;94;26036;-85
2022/01/01 02:18:08;;;;;;;3.00;2.70;;;;;;;14.68;64.18;99675.60;2052956;93;25787;-83
2022/01/01 02:21:45;;;;;;;2.12;1.67;;;;;;;14.60;64.17;99678.27;2053416;94;25824;-85
2022/01/01 02:25:10;;;;;;;2.47;1.80;;;;;;;14.56;64.22;99671.30;2051334;95;25899;-86
2022/01/01 02:29:04;;;;;;;1.95;1.70;;;;;;;14.46;64.24;99676.11;2049661;94;25806;-83
2022/01/01 02:32:40;;;;;;;2.40;2.20;;;;;;;14.47;64.21;99702.31;2060004;94;26344;-84
2022/01/01 02:36:51;;;;;;;1.90;1.67;;;;;;;14.40;64.21;99699.28;2088227;93;25758;-86
2022/01/01 02:40:21;;;;;;;2.17;1.62;;;;;;;14.36;64.24;99698.42;1999346;97;25844;-85
2022/01/01 02:44:12;;;;;;;3.08;1.60;;;;;;;14.30;64.16;99694.49;1937002;99;25828;-84
2022/01/01 02:47:45;;;;;;;2.33;2.10;;;;;;;14.30;64.18;99712.84;1937292;100;25888;-84
2022/01/01 02:51:25;;;;;;;2.20;1.72;;;;;;;14.20;64.56;99708.50;1934349;100;30646;-82
2022/01/01 02:55:20;;;;;;;2.40;2.20;;;;;;;14.20;64.56;99708.50;1932236;100;25697;-81
2022/01/01 02:59:07;;;;;;;2.98;2.02;;;;;;;14.15;64.23;99707.20;1933605;100;25815;-86
2022/01/01 03:02:56;;;;;;;2.83;2.27;;;;;;;14.13;64.32;99717.25;1936741;100;26298;-81
2022/01/01 03:06:41;;;;;;;6.08;1.85;;;;;;;14.09;64.39;99716.39;1936844;100;25797;-82
2022/01/01 03:10:14;;;;;;;2.30;1.87;;;;;;;14.01;64.44;99724.71;1938241;100;25975;-80
2022/01/01 03:13:58;;;;;;;1.85;1.75;;;;;;;14.01;64.44;99724.71;1995339;94;25902;-81
2022/01/01 03:17:30;;;;;;;2.25;2.00;;;;;;;14.01;64.42;99732.57;2164715;88;26339;-82
2022/01/01 03:20:54;;;;;;;2.95;2.20;;;;;;;13.94;64.41;99740.00;2211905;86;25759;-82
2022/01/01 03:24:52;;;;;;;2.17;1.98;;;;;;;13.94;64.41;99740.00;2210256;88;25735;-86
2022/01/01 03:28:23;;;;;;;1.80;1.70;;;;;;;13.83;64.45;99741.29;2101810;92;25799;-87
2022/01/01 03:31:57;;;;;;;3.62;1.87;;;;;;;13.75;64.20;99731.27;2099327;92;25786;-83
2022/01/01 03:35:48;;;;;;;1.70;1.37;;;;;;;13.75;64.20;99731.27;2101114;93;25773;-86
2022/01/01 03:39:50;;;;;;;;;;;;;;;;;;;;;
2022/01/01 03:43:49;;;;;;;1.22;1.10;;;;;;;13.86;64.41;99757.45;2164214;91;25758;-83
2022/01/01 03:51:15;;;;;;;1.65;1.55;;;;;;;13.78;64.33;99764.45;2160699;91;25768;-81
2022/01/01 03:54:51;;;;;;;1.47;0.90;;;;;;;13.74;64.34;99762.71;2164315;90;25863;-82
2022/01/01 03:58:26;;;;;;;2.65;1.47;;;;;;;13.59;64.28;99755.25;2077042;93;25761;-81
2022/01/01 04:02:05;;;;;;;1.95;1.20;;;;;;;13.69;64.25;99788.44;2077489;94;25864;-82
2022/01/01 04:05:42;;;;;;;1.27;1.00;;;;;;;13.65;64.22;99805.03;2059021;95;25673;-83
2022/01/01 04:09:22;;;;;;;1.10;1.00;;;;;;;13.65;64.16;99806.34;2059575;95;25799;-82
2022/01/01 04:13:08;;;;;;;1.95;1.00;;;;;;;13.65;64.11;99811.58;2078417;95;25766;-82
2022/01/01 04:16:40;;;;;;;1.10;0.95;;;;;;;13.57;63.93;99809.39;2073560;94;25804;-83
2022/01/01 04:20:21;;;;;;;1.60;0.98;;;;;;;13.57;63.93;99809.39;2089333;94;25740;-85
2022/01/01 04:23:58;;;;;;;1.12;0.90;;;;;;;13.56;64.04;99812.85;2121538;91;26248;-83
2022/01/01 04:27:48;;;;;;;1.02;0.78;;;;;;;13.55;63.94;99828.14;2164928;91;25826;-80
2022/01/01 04:31:24;;;;;;;2.40;1.70;;;;;;;13.55;63.93;99819.41;2166567;90;25955;-83
2022/01/01 04:35:02;;;;;;;1.50;1.35;;;;;;;13.54;63.89;99817.23;2125909;90;25803;-82
2022/01/01 04:38:53;;;;;;;;;;;;;;;;;;;;;
2022/01/01 04:42:26;;;;;;;0.98;0.82;;;;;;;13.52;63.73;99823.33;2144724;89;25743;-79
2022/01/01 04:50:04;;;;;;;2.58;1.30;;;;;;;13.47;63.63;99829.88;2083057;91;25929;-83
2022/01/01 04:53:43;;;;;;;;;;;;;;;;;;;;;
2022/01/01 05:00:44;;;;;;;1.80;1.40;;;;;;;13.45;63.51;99852.55;2019517;97;25806;-83
2022/01/01 05:04:27;;;;;;;1.55;1.17;;;;;;;13.44;63.50;99863.47;2019820;96;25774;-89
2022/01/01 05:08:14;;;;;;;1.75;1.10;;;;;;;13.40;63.32;99855.16;2015565;96;26314;-82
2022/01/01 05:12:09;;;;;;;4.37;1.10;;;;;;;13.38;63.35;99865.18;2016672;96;25818;-81
2022/01/01 05:15:49;;;;;;;1.00;0.65;;;;;;;13.36;63.18;99874.77;1959375;99;25833;-84
2022/01/01 05:19:27;;;;;;;0.90;0.60;;;;;;;13.34;62.99;99879.14;1827228;106;26046;-82
2022/01/01 05:23:04;;;;;;;;;;;;;;;;;;;;;
2022/01/01 05:30:14;;;;;;;0.82;0.53;;;;;;;13.29;62.60;99893.94;1821182;107;25815;-83
2022/01/01 05:34:04;;;;;;;1.27;0.90;;;;;;;13.28;62.54;99907.90;1821271;107;25831;-83
2022/01/01 05:37:47;;;;;;;;;;;;;;;;;;;;;
2022/01/01 05:41:10;;;;;;;1.30;0.93;;;;;;;13.21;62.51;99915.68;1843366;107;25835;-87
2022/01/01 05:44:52;;;;;;;0.85;0.68;;;;;;;13.20;62.52;99915.25;1819755;107;25855;-85
2022/01/01 05:48:41;;;;;;;;;;;;;;;;;;;;;
2022/01/01 05:52:10;;;;;;;1.42;1.20;;;;;;;13.16;62.58;99931.81;1759856;109;26167;-81
2022/01/01 05:55:49;;;;;;;1.82;1.00;;;;;;;13.10;62.54;99921.30;1758886;110;25928;-83
2022/01/01 05:59:28;;;;;;;1.83;1.03;;;;;;;13.10;62.60;99932.20;1762253;109;25803;-82
2022/01/01 06:03:08;;;;;;;1.80;1.12;;;;;;;13.06;62.54;99933.03;1776220;109;25845;-83
2022/01/01 06:06:56;;;;;;;;;;;;;;;;;;;;;
2022/01/01 06:10:38;;;;;;;1.67;1.02;;;;;;;13.06;62.56;99936.95;1758860;110;26813;-82
2022/01/01 06:14:12;;;;;;;2.20;1.12;;;;;;;13.09;62.49;99936.97;1744478;108;26071;-86
2022/01/01 06:17:49;;;;;;;;;;;;;;;;;;;;;
2022/01/01 06:21:11;;;;;;;1.05;0.85;;;;;;;13.04;62.31;99941.32;1794334;106;25988;-84
2022/01/01 06:25:00;;;;;;;1.00;0.90;;;;;;;13.03;62.31;99944.78;1794518;109;26118;-87
2022/01/01 06:32:49;;;;;;;1.15;0.70;;;;;;;12.98;62.17;99950.86;1754074;108;25852;-84
2022/01/01 06:36:45;;;;;;;1.75;0.90;;;;;;;12.97;62.17;99947.81;1831028;107;25847;-86
2022/01/01 06:40:30;;;;;;;0.80;0.80;;;;;;;12.96;62.07;99962.21;1833179;106;25976;-88
2022/01/01 06:44:07;;;;;;;1.02;0.80;;;;;;;12.95;62.05;99972.20;1847999;105;25828;-85
2022/01/01 06:47:50;;;;;;;;;;;;;;;;;;;;;
2022/01/01 06:55:08;;;;;;;1.00;0.90;;;;;;;12.92;61.88;99972.18;1809348;107;25952;-86
2022/01/01 06:58:38;;;;;;;1.17;1.02;;;;;;;12.92;61.96;99973.49;1849100;105;25910;-85
2022/01/01 07:02:30;;;;;;;1.22;1.10;;;;;;;12.89;61.92;99970.44;1849106;104;25818;-80
2022/01/01 07:06:01;;;;;;;1.47;1.00;;;;;;;12.91;61.95;99991.38;1848565;105;25873;-85
2022/01/01 07:09:35;;;;;;;1.35;1.10;;;;;;;12.92;61.95;100000.96;1863883;104;26301;-86
2022/01/01 07:13:22;;;;;;;0.78;0.78;;;;;;;12.90;61.94;100008.81;1881849;103;25336;-81
2022/01/01 07:17:05;;;;;;;1.98;0.80;;;;;;;12.89;61.95;100011.00;1882095;100;25901;-87
2022/01/01 07:20:45;;;;;;;0.75;0.75;;;;;;;12.88;62.03;100010.97;1882599;102;25653;-88
2022/01/01 07:24:17;;;;;;;3.00;0.85;;;;;;;12.88;61.99;100010.53;1909038;101;25842;-82
2022/01/01 07:28:18;;;;;;;;;;;;;;;;;;;;;
2022/01/01 07:31:45;;;;;;;1.60;0.80;;;;;;;12.82;62.03;100007.86;1854582;101;26001;-83
2022/01/01 07:35:42;;;;;;;;;;;;;;;;;;;;;
2022/01/01 07:39:31;;;;;;;0.65;0.55;;;;;;;12.87;61.99;100010.09;1920602;102;26029;-88
2022/01/01 07:43:41;;;;;;;0.70;0.55;;;;;;;12.95;61.83;100020.17;1855873;104;25808;-85
2022/01/01 07:51:09;;;;;;;0.60;0.60;;;;;;;13.24;61.38;100022.19;1760162;110;26168;-86
2022/01/01 07:54:46;;;;;;;0.90;0.50;;;;;;;13.22;61.19;100026.05;1717127;111;25918;-83
2022/01/01 08:02:05;;;;;;;0.93;0.72;;;;;;;13.15;61.19;100036.04;1760061;110;25809;-87
2022/01/01 08:05:58;;;;;;;;;;;;;;;;;;;;;
2022/01/01 08:09:22;;;;;;;1.45;0.88;;;;;;;15.07;60.14;100048.62;1728965;112;25990;-88
2022/01/01 08:13:36;;;;;;;1.17;0.80;;;;;;;15.07;60.14;100048.62;1719580;115;26146;-88
2022/01/01 08:17:14;;;;;;;1.37;0.78;;;;;;;15.13;58.88;100050.39;1778778;108;26427;-84
2022/01/01 08:20:56;;;;;;;2.07;0.70;;;;;;;14.90;58.58;100059.12;1824518;107;25874;-84
2022/01/01 08:24:41;;;;;;;2.75;0.85;;;;;;;14.70;58.52;100059.09;1836813;106;25921;-85
2022/01/01 08:28:14;;;;;;;2.05;1.10;;;;;;;14.53;58.47;100058.19;1893864;102;26027;-87
2022/01/01 08:32:06;;;;;;;2.95;0.78;;;;;;;14.39;58.54;100068.61;1908784;102;25686;-84
2022/01/01 08:35:43;;;;;;;0.95;0.72;;;;;;;14.27;58.80;100074.67;1913942;102;25923;-82
2022/01/01 08:39:19;;;;;;;1.95;1.27;;;;;;;14.21;58.75;100072.06;1943878;100;25329;-87
2022/01/01 08:43:01;;;;;;;1.20;0.88;;;;;;;14.17;58.81;100082.06;1959369;99;25960;-82
2022/01/01 08:46:39;;;;;;;;;;;;;;;;;;;;;
2022/01/01 08:50:27;;;;;;;;;;;;;;;;;;;;;
2022/01/01 08:54:08;;;;;;;1.60;1.30;;;;;;;13.88;59.12;100063.17;1940740;100;25367;-88
2022/01/01 08:57:37;;;;;;;3.00;1.30;;;;;;;13.88;59.12;100063.17;1927468;101;25888;-81
2022/01/01 09:01:22;;;;;;;1.85;1.27;;;;;;;13.99;59.18;100090.73;1906494;103;25828;-84
2022/01/01 09:05:15;;;;;;;1.57;1.30;;;;;;;13.96;59.28;100081.55;1913281;101;25973;-82
2022/01/01 09:08:41;;;;;;;2.22;1.40;;;;;;;13.94;59.21;100088.54;1915341;99;25919;-82
2022/01/01 09:12:27;;;;;;;1.40;1.27;;;;;;;13.94;59.42;100084.61;1922617;101;26185;-83
2022/01/01 09:15:59;;;;;;;1.72;1.57;;;;;;;13.91;59.45;100085.46;1922393;101;25803;-83
2022/01/01 09:19:49;;;;;;;;;;;;;;;;;;;;;
2022/01/01 09:23:09;;;;;;;1.98;1.77;;;;;;;13.90;59.59;100086.74;1978591;97;25834;-83
2022/01/01 09:26:46;;;;;;;2.05;1.95;;;;;;;13.89;59.77;100085.00;2011326;96;26160;-84
2022/01/01 09:30:23;;;;;;;1.42;1.32;;;;;;;13.89;59.77;100085.00;2029949;95;25852;-86
2022/01/01 09:33:40;;;;;;;1.75;1.65;;;;;;;13.79;59.72;100063.55;2001016;95;25307;-83
2022/01/01 09:37:26;;;;;;;2.15;1.40;;;;;;;13.85;59.80;100086.73;1995128;97;25781;-80
2022/01/01 09:40:59;;;;;;;1.72;1.47;;;;;;;13.82;59.91;100088.02;1993607;97;25810;-86
2022/01/01 09:44:42;;;;;;;4.80;1.57;;;;;;;13.86;59.96;100080.61;1985285;97;26091;-81
2022/01/01 09:48:18;;;;;;;1.37;1.25;;;;;;;13.86;60.04;100088.91;1968751;99;25910;-85
2022/01/01 09:52:06;;;;;;;;;;;;;;;13.89;60.12;100098.97;1996107;97;25837;-82
2022/01/01 09:55:36;;;;;;;2.00;1.60;;;;;;;13.87;60.11;100090.25;1977026;99;26086;-85
2022/01/01 09:59:07;;;;;;;1.55;1.40;;;;;;;13.87;60.11;100090.25;1990292;97;25857;-81
2022/01/01 10:02:44;;;;;;;1.50;1.40;;;;;;;13.85;60.43;100096.34;1992998;98;25747;-82
2022/01/01 10:06:16;;;;;;;1.70;1.27;;;;;;;13.88;60.29;100083.26;2001864;96;25961;-85
2022/01/01 10:09:47;;;;;;;2.20;1.85;;;;;;;13.94;60.54;100092.47;2001953;97;25770;-83
2022/01/01 10:13:15;;;;;;;1.70;1.52;;;;;;;14.02;60.37;100090.75;1969207;98;25859;-79
2022/01/01 10:17:04;;;;;;;2.65;1.72;;;;;;;14.02;60.37;100090.75;2000358;97;25664;-83
2022/01/01 10:20:43;;;;;;;1.82;1.62;;;;;;;14.08;60.52;100105.64;2030899;95;25860;-80
2022/01/01 10:24:12;;;;;;;2.55;1.40;;;;;;;14.09;60.44;100109.56;2046130;95;25881;-78
2022/01/01 10:27:56;;;;;;;1.42;1.30;;;;;;;14.14;60.60;100117.03;2094319;93;25716;-82
2022/01/01 10:31:35;;;;;;;2.00;1.50;;;;;;;14.14;60.60;100117.03;2106261;93;26057;-85
2022/01/01 10:34:56;;;;;;;3.05;1.65;;;;;;;14.23;60.14;100110.06;2120703;92;25834;-84
2022/01/01 10:38:30;;;;;;;3.12;1.70;;;;;;;14.35;60.46;100117.56;2140528;91;25895;-80
2022/01/01 10:42:06;;;;;;;1.67;1.40;;;;;;;14.46;60.41;100117.59;2139944;92;25930;-83
2022/01/01 10:45:50;;;;;;;2.50;1.57;;;;;;;14.51;60.05;100118.53;2138099;92;25625;-81
2022/01/01 10:53:41;;;;;;;1.95;1.37;;;;;;;14.54;60.26;100134.25;2231200;87;25786;-89
2022/01/01 10:57:33;;;;;;;1.52;1.20;;;;;;;14.51;60.20;100140.83;2277036;86;25943;-84
2022/01/01 11:01:17;;;;;;;1.65;1.20;;;;;;;14.52;60.19;100154.81;2276931;86;26103;-83
2022/01/01 11:05:03;;;;;;;1.40;1.30;;;;;;;14.49;60.17;100149.52;2271262;83;25906;-83
2022/01/01 11:08:43;;;;;;;1.85;1.32;;;;;;;14.47;60.16;100158.68;2370826;80;25754;-84
2022/01/01 11:12:28;;;;;;;2.37;1.15;;;;;;;14.48;60.13;100157.83;2369201;83;25685;-82
2022/01/01 11:15:58;;;;;;;3.22;1.15;;;;;;;14.51;60.08;100159.59;2371020;83;25726;-81
2022/01/01 11:19:38;;;;;;;;;;;;;;;;;;;;;
2022/01/01 11:23:16;;;;;;;1.25;0.93;;;;;;;14.50;60.02;100181.02;2345532;82;25784;-82
2022/01/01 11:26:55;;;;;;;1.22;0.80;;;;;;;14.49;59.99;100181.87;2356697;82;25740;-83
2022/01/01 11:30:36;;;;;;;1.05;1.00;;;;;;;14.48;59.93;100182.75;2358188;82;25590;-84
2022/01/01 11:34:00;;;;;;;1.35;0.93;;;;;;;14.47;59.94;100180.10;2353962;83;25766;-81
2022/01/01 11:38:06;;;;;;;0.98;0.85;;;;;;;14.47;59.92;100186.66;2358831;81;25664;-80
2022/01/01 11:42:00;;;;;;;1.15;0.80;;;;;;;14.45;59.87;100197.16;2358618;82;25669;-82
2022/01/01 11:45:51;;;;;;;1.42;1.07;;;;;;;14.44;59.84;100196.69;2357760;83;25714;-83
2022/01/01 11:49:36;;;;;;;1.37;0.82;;;;;;;14.41;59.80;100201.52;2265890;84;25662;-82
2022/01/01 11:53:16;;;;;;;1.10;0.90;;;;;;;14.41;59.76;100216.37;2255258;86;25708;-84
2022/01/01 11:57:22;;;;;;;1.20;0.98;;;;;;;14.39;59.74;100211.55;2147056;91;25776;-84
2022/01/01 12:01:23;;;;;;;1.00;0.90;;;;;;;14.37;59.70;100225.08;2014660;96;25787;-85
2022/01/01 12:05:08;;;;;;;0.75;0.72;;;;;;;14.37;59.65;100232.94;1988318;98;25737;-81
2022/01/01 12:08:55;;;;;;;1.27;0.80;;;;;;;14.39;59.63;100232.53;1962202;99;25893;-80
2022/01/01 12:12:38;;;;;;;1.17;0.90;;;;;;;14.39;59.50;100224.66;1878283;103;25864;-81
2022/01/01 12:16:27;;;;;;;1.72;1.20;;;;;;;14.41;59.42;100234.73;1875646;101;25897;-83
2022/01/01 12:20:04;;;;;;;1.00;0.80;;;;;;;14.42;59.29;100248.28;1876949;103;25971;-82
2022/01/01 12:23:36;;;;;;;1.90;0.95;;;;;;;14.45;59.29;100253.55;1877176;103;26202;-82
2022/01/01 12:27:23;;;;;;;2.22;0.82;;;;;;;14.51;59.45;100251.00;1818444;106;25950;-83
2022/01/01 12:31:27;;;;;;;6.90;2.08;;;;;;;14.57;59.71;100266.75;1851663;105;25846;-83
2022/01/01 12:35:44;;;;;;;9.55;3.00;;;;;;;14.70;60.74;100264.20;1853178;105;25848;-83
2022/01/01 12:39:09;;;;;;;24.65;5.37;;;;;;;14.93;61.92;100252.05;1882517;103;25878;-86
2022/01/01 12:42:47;;;;;;;19.73;6.92;;;;;;;15.31;62.63;100277.55;1925006;102;25816;-85
2022/01/01 12:46:27;;;;;;;31.77;6.87;;;;;;;15.63;63.03;100278.08;1906925;103;25756;-84
2022/01/01 12:50:01;;;;;;;26.15;6.37;;;;;;;15.77;62.98;100282.48;1907255;103;25876;-83
2022/01/01 12:53:52;;;;;;;;;;;;;;;;;;;;;
2022/01/01 12:57:32;;;;;;;16.90;5.58;;;;;;;15.97;62.43;100275.92;1868868;102;26482;-85
2022/01/01 13:00:56;;;;;;;16.40;4.62;;;;;;;15.90;61.86;100274.18;1856378;103;25934;-82
2022/01/01 13:04:34;;;;;;;12.58;5.15;;;;;;;15.84;61.82;100289.94;1859025;104;26585;-82
2022/01/01 13:08:09;;;;;;;12.47;4.28;;;;;;;15.86;62.17;100301.31;1863143;104;25899;-83
2022/01/01 13:11:59;;;;;;;;;;;;;;;;;;;;;
2022/01/01 13:15:23;;;;;;;11.18;2.75;;;;;;;16.16;62.20;100328.06;1867295;104;25995;-84
2022/01/01 13:18:51;;;;;;;6.30;2.55;;;;;;;16.32;62.03;100336.84;1891940;100;26087;-83
2022/01/01 13:22:35;;;;;;;7.90;2.50;;;;;;;16.36;61.29;100350.42;1929906;100;25761;-82
2022/01/01 13:26:13;;;;;;;4.77;2.00;;;;;;;16.23;61.21;100349.98;1958395;99;25813;-82
2022/01/01 13:29:58;;;;;;;7.35;3.15;;;;;;;16.11;61.09;100353.50;1971297;98;25835;-83
2022/01/01 13:33:39;;;;;;;9.90;2.65;;;;;;;16.05;61.18;100365.33;1881096;101;25780;-83
2022/01/01 13:37:20;;;;;;;4.67;2.20;;;;;;;16.00;61.82;100377.61;1941285;98;25913;-83
2022/01/01 13:40:56;;;;;;;;;;;;;;;16.14;62.67;100390.77;1927645;101;26397;-83
2022/01/01 13:44:45;;;;;;;5.22;1.92;;;;;;;16.33;62.83;100394.27;1930914;102;26185;-80
2022/01/01 13:48:15;;;;;;;3.42;1.47;;;;;;;16.44;62.86;100399.98;1934549;100;26015;-86
2022/01/01 13:51:47;;;;;;;6.60;1.40;;;;;;;16.50;60.59;100406.98;1918161;102;25918;-81
2022/01/01 13:55:24;;;;;;;5.62;1.57;;;;;;;16.16;59.39;100406.09;1995226;97;25810;-84
2022/01/01 13:58:58;;;;;;;2.65;1.20;;;;;;;15.80;57.95;100404.73;2106537;93;25899;-82
2022/01/01 14:02:31;;;;;;;3.12;1.30;;;;;;;15.49;57.44;100414.64;2090018;93;46586;-85
2022/01/01 14:06:03;;;;;;;1.45;1.17;;;;;;;15.26;57.19;100414.13;2090842;93;25777;-79
2022/01/01 14:09:42;;;;;;;2.00;1.10;;;;;;;15.06;56.70;100424.52;2091547;94;25705;-81
2022/01/01 14:13:05;;;;;;;2.02;1.32;;;;;;;14.92;56.17;100435.78;2091271;94;25722;-82
2022/01/01 14:16:32;;;;;;;3.12;1.00;;;;;;;14.74;56.29;100447.03;2091324;94;26060;-84
2022/01/01 14:20:03;;;;;;;3.08;1.67;;;;;;;14.87;60.42;100462.01;2032123;96;25981;-82
2022/01/01 14:24:00;;;;;;;;;;;;;;;;;;;;;
2022/01/01 14:27:32;;;;;;;3.47;1.10;;;;;;;15.79;60.83;100456.88;1948798;99;25490;-85
2022/01/01 14:31:06;;;;;;;3.33;1.80;;;;;;;15.91;60.14;100461.72;1932306;101;25862;-82
2022/01/01 14:34:47;;;;;;;3.37;2.15;;;;;;;16.04;59.69;100477.97;1931749;102;26012;-85
2022/01/01 14:38:12;;;;;;;4.67;2.80;;;;;;;15.76;57.00;100476.57;1961560;98;25790;-83
2022/01/01 14:41:35;;;;;;;4.03;2.55;;;;;;;15.37;55.82;100496.92;1918388;100;26270;-82
2022/01/01 14:44:59;;;;;;;3.98;2.30;;;;;;;15.07;55.32;100489.28;1982439;96;25801;-83
2022/01/01 14:48:55;;;;;;;4.15;2.20;;;;;;;14.82;54.87;100504.42;2045411;95;25590;-86
2022/01/01 14:53:11;;;;;;;3.20;2.10;;;;;;;14.63;54.59;100510.80;2011176;96;25897;-84
2022/01/01 14:57:14;;;;;;;3.08;1.70;;;;;;;14.41;54.33;100515.39;2028478;96;25651;-85
2022/01/01 15:00:33;;;;;;;2.75;1.60;;;;;;;14.20;54.17;100523.88;2028922;95;25757;-85
2022/01/01 15:03:59;;;;;;;2.58;1.90;;;;;;;14.08;54.15;100527.26;2039434;96;25807;-82
2022/01/01 15:07:33;;;;;;;4.78;2.15;;;;;;;14.01;54.25;100518.87;2039063;96;25829;-84
2022/01/01 15:11:08;;;;;;;4.22;2.20;;;;;;;13.92;54.07;100525.31;2089279;91;26569;-81
2022/01/01 15:14:32;;;;;;;4.87;1.70;;;;;;;13.80;54.12;100533.88;2138234;92;25850;-84
2022/01/01 15:17:56;;;;;;;3.55;1.85;;;;;;;13.70;54.10;100552.56;2136686;92;25872;-84
2022/01/01 15:21:43;;;;;;;2.62;1.67;;;;;;;13.63;54.08;100562.91;2148686;89;25855;-80
2022/01/01 15:25:24;;;;;;;3.70;2.22;;;;;;;13.55;54.08;100562.81;2358265;82;25814;-79
2022/01/01 15:28:52;;;;;;;3.08;1.50;;;;;;;13.47;54.29;100563.14;2247391;87;25866;-76
2022/01/01 15:39:48;;;;;;;5.05;2.37;;;;;;;13.88;55.00;100564.14;2256117;86;25929;-82
2022/01/01 15:43:24;;;;;;;4.30;2.30;;;;;;;13.76;54.62;100571.39;2244239;87;25709;-80
2022/01/01 15:50:18;;;;;;;2.75;2.20;;;;;;;13.53;54.28;100578.92;2153646;91;25840;-83
2022/01/01 15:54:20;;;;;;;3.12;1.82;;;;;;;13.49;54.25;100591.95;2151614;91;26056;-81
2022/01/01 15:58:05;;;;;;;5.30;1.80;;;;;;;13.41;54.31;100594.04;2049700;95;25837;-85
2022/01/01 16:02:06;;;;;;;2.25;1.40;;;;;;;13.35;54.07;100608.77;2141580;91;26236;-83
2022/01/01 16:05:44;;;;;;;2.60;1.85;;;;;;;13.26;54.11;100603.37;2177358;89;25699;-81
2022/01/01 16:09:20;;;;;;;4.13;2.10;;;;;;;13.19;54.05;100607.16;2197416;87;25734;-80
2022/01/01 16:13:00;;;;;;;4.15;2.25;;;;;;;13.16;54.30;100603.22;2195751;88;25763;-81
2022/01/01 16:16:36;;;;;;;3.10;2.20;;;;;;;13.13;54.16;100608.40;2192885;88;25931;-83
2022/01/01 16:20:08;;;;;;;3.05;2.25;;;;;;;12.96;54.10;100596.77;2196154;88;26097;-83
2022/01/01 16:23:59;;;;;;;4.12;2.77;;;;;;;13.04;54.04;100611.28;2199735;88;25851;-82
2022/01/01 16:27:46;;;;;;;4.33;2.55;;;;;;;13.00;53.99;100628.67;2236097;88;26442;-80
2022/01/01 16:31:10;;;;;;;12.10;5.12;;;;;;;12.94;53.89;100631.17;2237752;87;25316;-82
2022/01/01 16:34:52;;;;;;;3.77;2.83;;;;;;;12.89;53.86;100627.17;2236714;87;25791;-83
2022/01/01 16:38:25;;;;;;;5.72;2.92;;;;;;;12.86;53.93;100627.13;2237065;87;25766;-82
2022/01/01 16:42:07;;;;;;;4.35;2.62;;;;;;;12.75;53.82;100633.44;2251365;86;25576;-82
2022/01/01 16:45:42;;;;;;;5.22;3.72;;;;;;;12.68;53.97;100633.30;2302783;82;25619;-82
2022/01/01 16:53:11;;;;;;;9.00;3.25;;;;;;;12.63;53.93;100639.77;2281841;86;25879;-82
2022/01/01 16:56:46;;;;;;;3.60;2.92;;;;;;;12.58;54.10;100644.44;2281359;86;25829;-84
2022/01/01 17:00:18;;;;;;;6.62;3.02;;;;;;;12.60;54.40;100660.63;2282413;85;25671;-81
2022/01/01 17:04:22;;;;;;;3.87;2.25;;;;;;;12.62;54.49;100660.24;2278903;86;25746;-81
2022/01/01 17:07:55;;;;;;;2.55;2.08;;;;;;;12.62;54.52;100658.02;2280950;85;25850;-81
2022/01/01 17:11:16;;;;;;;5.62;2.47;;;;;;;12.63;54.46;100669.84;2282670;86;25710;-81
2022/01/01 17:14:56;;;;;;;3.02;2.20;;;;;;;12.60;54.31;100682.86;2281349;86;25856;-80
2022/01/01 17:19:04;;;;;;;4.95;2.02;;;;;;;12.58;54.06;100693.70;2283284;85;25716;-80
2022/01/01 17:22:57;;;;;;;3.27;2.30;;;;;;;12.53;53.99;100695.36;2283408;85;25825;-81
2022/01/01 17:26:27;;;;;;;3.77;2.83;;;;;;;12.47;53.76;100714.84;2281513;86;25709;-81
2022/01/01 17:29:57;;;;;;;4.72;3.02;;;;;;;12.44;53.66;100721.30;2283120;86;25626;-81
2022/01/01 17:33:43;;;;;;;5.95;2.60;;;;;;;12.36;53.56;100729.42;2281828;84;25714;-83
2022/01/01 17:37:14;;;;;;;2.45;1.57;;;;;;;12.33;53.47;100734.58;2282878;85;26450;-83
2022/01/01 17:40:47;;;;;;;4.05;2.15;;;;;;;12.27;53.32;100744.03;2283012;86;25701;-84
2022/01/01 17:44:44;;;;;;;2.72;1.70;;;;;;;12.31;53.55;100746.30;2282876;86;25265;-83
2022/01/01 17:48:37;;;;;;;5.78;2.55;;;;;;;12.28;53.26;100745.83;2268839;85;25694;-83
2022/01/01 17:52:06;;;;;;;2.33;1.72;;;;;;;12.20;53.04;100752.59;2322378;85;25713;-83
2022/01/01 17:55:39;;;;;;;3.17;1.92;;;;;;;12.17;53.08;100746.41;2354213;81;25696;-82
2022/01/01 17:59:12;;;;;;;2.92;1.27;;;;;;;12.17;52.92;100752.95;2393386;81;25703;-82
2022/01/01 18:02:54;;;;;;;;;;;;;;;;;;;;;
2022/01/01 18:06:17;;;;;;;2.08;1.12;;;;;;;12.14;52.60;100754.19;2405353;81;25903;-82
2022/01/01 18:09:48;;;;;;;2.08;1.15;;;;;;;12.13;52.50;100760.27;2382633;82;25662;-82
2022/01/01 18:13:12;;;;;;;4.67;1.00;;;;;;;12.12;52.61;100773.77;2424622;81;25589;-83
2022/01/01 18:16:44;;;;;;;1.77;1.10;;;;;;;12.12;52.51;100774.19;2424502;81;25596;-82
2022/01/01 18:20:22;;;;;;;1.25;0.90;;;;;;;12.10;52.15;100773.26;2431280;79;25796;-84
2022/01/01 18:24:10;;;;;;;1.45;0.82;;;;;;;12.05;52.38;100777.08;2443444;80;25942;-83
2022/01/01 18:27:52;;;;;;;1.27;0.75;;;;;;;12.03;52.01;100789.22;2438053;81;25862;-83
2022/01/01 18:31:16;;;;;;;2.45;0.80;;;;;;;12.03;51.92;100796.63;2235023;87;25291;-83
2022/01/01 18:34:55;;;;;;;1.07;0.98;;;;;;;11.97;51.48;100805.62;2235827;87;25753;-83
2022/01/01 18:38:38;;;;;;;1.75;0.60;;;;;;;11.92;51.40;100810.29;2236447;87;25786;-82
2022/01/01 18:41:57;;;;;;;2.45;0.95;;;;;;;11.86;51.27;100804.91;2231909;87;25750;-83
2022/01/01 18:45:28;;;;;;;1.07;0.90;;;;;;;11.76;51.13;100812.89;2231536;87;25784;-84
2022/01/01 18:48:57;;;;;;;3.02;1.12;;;;;;;11.72;51.18;100821.50;2231755;87;34871;-83
2022/01/01 18:53:00;;;;;;;4.25;1.62;;;;;;;11.68;51.18;100828.38;2231271;87;25775;-82
2022/01/01 18:56:52;;;;;;;5.08;1.87;;;;;;;11.65;51.08;100820.45;2200056;87;25758;-81
2022/01/01 19:00:27;;;;;;;2.02;1.57;;;;;;;11.62;51.03;100819.50;2084762;93;26420;-83